sensor_id;sensor_type;location;lat;lon;timestamp;P1;durP1;ratioP1;P2;durP2;ratioP2
7477;SDS011;3780;42.424;25.636;2022-08-01T00:00:59;12.68;;;10.13;;
7477;SDS011;3780;42.424;25.636;2022-08-01T00:03:25;11.45;;;9.18;;
7477;SDS011;3780;42.424;25.636;2022-08-01T00:05:50;9.90;;;8.27;;
7477;SDS011;3780;42.424;25.636;2022-08-01T00:08:16;10.73;;;8.60;;
7477;SDS011;3780;42.424;25.636;2022-08-01T00:10:41;11.02;;;8.23;;
7477;SDS011;3780;42.424;25.636;2022-08-01T00:13:07;10.15;;;7.55;;
7477;SDS011;3780;42.424;25.636;2022-08-01T00:15:32;11.68;;;8.05;;
7477;SDS011;3780;42.424;25.636;2022-08-01T00:17:58;11.43;;;7.20;;
7477;SDS011;3780;42.424;25.636;2022-08-01T00:20:24;9.85;;;7.32;;
7477;SDS011;3780;42.424;25.636;2022-08-01T00:22:49;8.82;;;7.70;;
7477;SDS011;3780;42.424;25.636;2022-08-01T00:25:15;8.55;;;7.55;;
7477;SDS011;3780;42.424;25.636;2022-08-01T00:27:40;9.60;;;7.22;;
7477;SDS011;3780;42.424;25.636;2022-08-01T00:30:06;8.52;;;7.50;;
7477;SDS011;3780;42.424;25.636;2022-08-01T00:32:32;9.48;;;7.40;;
7477;SDS011;3780;42.424;25.636;2022-08-01T00:34:57;9.40;;;6.22;;
7477;SDS011;3780;42.424;25.636;2022-08-01T00:37:23;8.32;;;7.43;;
7477;SDS011;3780;42.424;25.636;2022-08-01T00:39:48;7.05;;;6.35;;
7477;SDS011;3780;42.424;25.636;2022-08-01T00:42:14;6.80;;;6.20;;
7477;SDS011;3780;42.424;25.636;2022-08-01T00:44:40;7.72;;;6.10;;
7477;SDS011;3780;42.424;25.636;2022-08-01T00:47:05;10.65;;;6.72;;
7477;SDS011;3780;42.424;25.636;2022-08-01T00:49:33;9.02;;;5.97;;
7477;SDS011;3780;42.424;25.636;2022-08-01T00:51:59;10.23;;;6.25;;
7477;SDS011;3780;42.424;25.636;2022-08-01T00:54:25;7.80;;;6.07;;
7477;SDS011;3780;42.424;25.636;2022-08-01T00:56:52;7.95;;;5.88;;
7477;SDS011;3780;42.424;25.636;2022-08-01T00:59:18;6.57;;;5.85;;
7477;SDS011;3780;42.424;25.636;2022-08-01T01:01:46;9.32;;;5.53;;
7477;SDS011;3780;42.424;25.636;2022-08-01T01:04:12;7.78;;;5.25;;
7477;SDS011;3780;42.424;25.636;2022-08-01T01:09:50;5.45;;;4.95;;
7477;SDS011;3780;42.424;25.636;2022-08-01T01:12:33;6.43;;;4.88;;
7477;SDS011;3780;42.424;25.636;2022-08-01T01:15:15;7.75;;;4.78;;
7477;SDS011;3780;42.424;25.636;2022-08-01T01:20:27;5.40;;;4.90;;
7477;SDS011;3780;42.424;25.636;2022-08-01T01:28:08;5.05;;;3.63;;
7477;SDS011;3780;42.424;25.636;2022-08-01T01:30:41;4.13;;;3.72;;
7477;SDS011;3780;42.424;25.636;2022-08-01T01:33:10;4.78;;;3.53;;
7477;SDS011;3780;42.424;25.636;2022-08-01T01:35:41;5.03;;;3.50;;
7477;SDS011;3780;42.424;25.636;2022-08-01T01:38:13;8.95;;;3.42;;
7477;SDS011;3780;42.424;25.636;2022-08-01T01:40:42;8.10;;;3.37;;
7477;SDS011;3780;42.424;25.636;2022-08-01T01:43:10;7.35;;;3.17;;
7477;SDS011;3780;42.424;25.636;2022-08-01T01:45:37;7.50;;;3.53;;
7477;SDS011;3780;42.424;25.636;2022-08-01T01:48:05;4.22;;;3.08;;
7477;SDS011;3780;42.424;25.636;2022-08-01T01:50:32;4.25;;;2.90;;
7477;SDS011;3780;42.424;25.636;2022-08-01T01:53:00;3.78;;;3.05;;
7477;SDS011;3780;42.424;25.636;2022-08-01T01:55:27;6.00;;;3.22;;
7477;SDS011;3780;42.424;25.636;2022-08-01T01:57:54;3.58;;;2.53;;
7477;SDS011;3780;42.424;25.636;2022-08-01T02:00:21;4.60;;;2.80;;
7477;SDS011;3780;42.424;25.636;2022-08-01T02:02:48;5.47;;;3.20;;
7477;SDS011;3780;42.424;25.636;2022-08-01T02:05:16;5.70;;;3.35;;
7477;SDS011;3780;42.424;25.636;2022-08-01T02:07:43;8.30;;;4.43;;
7477;SDS011;3780;42.424;25.636;2022-08-01T02:10:10;6.60;;;3.25;;
7477;SDS011;3780;42.424;25.636;2022-08-01T02:12:37;8.38;;;4.15;;
7477;SDS011;3780;42.424;25.636;2022-08-01T02:15:07;8.13;;;3.65;;
7477;SDS011;3780;42.424;25.636;2022-08-01T02:17:36;13.77;;;5.43;;
7477;SDS011;3780;42.424;25.636;2022-08-01T02:20:09;12.15;;;4.07;;
7477;SDS011;3780;42.424;25.636;2022-08-01T02:22:52;7.97;;;4.20;;
7477;SDS011;3780;42.424;25.636;2022-08-01T02:25:25;8.13;;;3.70;;
7477;SDS011;3780;42.424;25.636;2022-08-01T02:28:06;4.18;;;3.10;;
7477;SDS011;3780;42.424;25.636;2022-08-01T02:30:36;6.95;;;3.10;;
7477;SDS011;3780;42.424;25.636;2022-08-01T02:36:10;6.00;;;2.80;;
7477;SDS011;3780;42.424;25.636;2022-08-01T02:38:39;8.90;;;3.50;;
7477;SDS011;3780;42.424;25.636;2022-08-01T02:41:07;5.85;;;3.42;;
7477;SDS011;3780;42.424;25.636;2022-08-01T02:43:38;5.63;;;3.55;;
7477;SDS011;3780;42.424;25.636;2022-08-01T02:46:07;6.10;;;2.80;;
7477;SDS011;3780;42.424;25.636;2022-08-01T02:48:36;2.53;;;2.15;;
7477;SDS011;3780;42.424;25.636;2022-08-01T02:51:05;4.93;;;2.35;;
7477;SDS011;3780;42.424;25.636;2022-08-01T02:53:33;7.00;;;3.05;;
7477;SDS011;3780;42.424;25.636;2022-08-01T02:56:04;6.03;;;2.20;;
7477;SDS011;3780;42.424;25.636;2022-08-01T02:58:30;5.93;;;1.67;;
7477;SDS011;3780;42.424;25.636;2022-08-01T03:00:58;5.10;;;1.75;;
7477;SDS011;3780;42.424;25.636;2022-08-01T03:03:24;2.28;;;1.70;;
7477;SDS011;3780;42.424;25.636;2022-08-01T03:05:51;4.05;;;1.63;;
7477;SDS011;3780;42.424;25.636;2022-08-01T03:08:17;8.45;;;1.70;;
7477;SDS011;3780;42.424;25.636;2022-08-01T03:10:45;2.80;;;1.38;;
7477;SDS011;3780;42.424;25.636;2022-08-01T03:13:13;2.47;;;1.30;;
7477;SDS011;3780;42.424;25.636;2022-08-01T03:15:41;6.05;;;1.65;;
7477;SDS011;3780;42.424;25.636;2022-08-01T03:18:08;2.28;;;1.13;;
7477;SDS011;3780;42.424;25.636;2022-08-01T03:20:36;3.53;;;1.33;;
7477;SDS011;3780;42.424;25.636;2022-08-01T03:23:04;3.00;;;1.30;;
7477;SDS011;3780;42.424;25.636;2022-08-01T03:25:36;4.90;;;1.30;;
7477;SDS011;3780;42.424;25.636;2022-08-01T03:28:05;3.55;;;1.15;;
7477;SDS011;3780;42.424;25.636;2022-08-01T03:30:33;4.03;;;1.40;;
7477;SDS011;3780;42.424;25.636;2022-08-01T03:33:01;9.05;;;1.27;;
7477;SDS011;3780;42.424;25.636;2022-08-01T03:35:29;6.55;;;1.55;;
7477;SDS011;3780;42.424;25.636;2022-08-01T03:37:58;5.32;;;1.40;;
7477;SDS011;3780;42.424;25.636;2022-08-01T03:43:20;4.22;;;1.33;;
7477;SDS011;3780;42.424;25.636;2022-08-01T03:45:57;2.35;;;1.27;;
7477;SDS011;3780;42.424;25.636;2022-08-01T03:48:29;1.92;;;1.20;;
7477;SDS011;3780;42.424;25.636;2022-08-01T03:50:59;4.35;;;1.35;;
7477;SDS011;3780;42.424;25.636;2022-08-01T03:53:28;5.20;;;1.48;;
7477;SDS011;3780;42.424;25.636;2022-08-01T03:55:58;3.55;;;1.98;;
7477;SDS011;3780;42.424;25.636;2022-08-01T03:58:26;4.05;;;1.40;;
7477;SDS011;3780;42.424;25.636;2022-08-01T04:00:52;3.17;;;1.60;;
7477;SDS011;3780;42.424;25.636;2022-08-01T04:03:19;2.00;;;1.33;;
7477;SDS011;3780;42.424;25.636;2022-08-01T04:05:45;3.92;;;1.10;;
7477;SDS011;3780;42.424;25.636;2022-08-01T04:08:10;3.55;;;1.45;;
7477;SDS011;3780;42.424;25.636;2022-08-01T04:10:36;4.15;;;1.10;;
7477;SDS011;3780;42.424;25.636;2022-08-01T04:13:02;2.03;;;1.33;;
7477;SDS011;3780;42.424;25.636;2022-08-01T04:15:28;3.63;;;1.27;;
7477;SDS011;3780;42.424;25.636;2022-08-01T04:17:54;3.22;;;1.73;;
7477;SDS011;3780;42.424;25.636;2022-08-01T04:20:20;2.08;;;1.45;;
7477;SDS011;3780;42.424;25.636;2022-08-01T04:22:45;3.08;;;1.67;;
7477;SDS011;3780;42.424;25.636;2022-08-01T04:25:12;3.92;;;1.20;;
7477;SDS011;3780;42.424;25.636;2022-08-01T04:27:46;3.40;;;1.20;;
7477;SDS011;3780;42.424;25.636;2022-08-01T04:30:14;3.58;;;1.20;;
7477;SDS011;3780;42.424;25.636;2022-08-01T04:32:41;3.53;;;1.67;;
7477;SDS011;3780;42.424;25.636;2022-08-01T04:35:11;2.50;;;1.40;;
7477;SDS011;3780;42.424;25.636;2022-08-01T04:37:44;3.75;;;1.40;;
7477;SDS011;3780;42.424;25.636;2022-08-01T04:40:13;6.28;;;1.63;;
7477;SDS011;3780;42.424;25.636;2022-08-01T04:42:41;2.03;;;1.20;;
7477;SDS011;3780;42.424;25.636;2022-08-01T04:45:07;3.03;;;1.42;;
7477;SDS011;3780;42.424;25.636;2022-08-01T04:47:34;2.83;;;1.35;;
7477;SDS011;3780;42.424;25.636;2022-08-01T04:50:05;7.18;;;1.42;;
7477;SDS011;3780;42.424;25.636;2022-08-01T04:52:35;11.15;;;1.63;;
7477;SDS011;3780;42.424;25.636;2022-08-01T04:55:03;5.97;;;2.42;;
7477;SDS011;3780;42.424;25.636;2022-08-01T04:57:32;12.45;;;3.92;;
7477;SDS011;3780;42.424;25.636;2022-08-01T05:00:02;2.17;;;1.25;;
7477;SDS011;3780;42.424;25.636;2022-08-01T05:02:28;2.97;;;1.42;;
7477;SDS011;3780;42.424;25.636;2022-08-01T05:04:54;3.75;;;2.22;;
7477;SDS011;3780;42.424;25.636;2022-08-01T05:07:20;8.55;;;2.13;;
7477;SDS011;3780;42.424;25.636;2022-08-01T05:09:46;6.95;;;1.95;;
7477;SDS011;3780;42.424;25.636;2022-08-01T05:12:12;7.85;;;2.70;;
7477;SDS011;3780;42.424;25.636;2022-08-01T05:14:38;3.83;;;1.70;;
7477;SDS011;3780;42.424;25.636;2022-08-01T05:17:04;2.88;;;1.45;;
7477;SDS011;3780;42.424;25.636;2022-08-01T05:19:31;5.32;;;1.50;;
7477;SDS011;3780;42.424;25.636;2022-08-01T05:21:58;3.10;;;1.83;;
7477;SDS011;3780;42.424;25.636;2022-08-01T05:24:26;4.07;;;1.90;;
7477;SDS011;3780;42.424;25.636;2022-08-01T05:26:56;3.45;;;1.80;;
7477;SDS011;3780;42.424;25.636;2022-08-01T05:29:22;2.92;;;1.70;;
7477;SDS011;3780;42.424;25.636;2022-08-01T05:31:48;3.80;;;2.05;;
7477;SDS011;3780;42.424;25.636;2022-08-01T05:34:14;4.35;;;2.03;;
7477;SDS011;3780;42.424;25.636;2022-08-01T05:36:39;5.78;;;1.83;;
7477;SDS011;3780;42.424;25.636;2022-08-01T05:39:05;2.83;;;2.28;;
7477;SDS011;3780;42.424;25.636;2022-08-01T05:41:30;3.35;;;1.95;;
7477;SDS011;3780;42.424;25.636;2022-08-01T05:43:56;2.85;;;1.95;;
7477;SDS011;3780;42.424;25.636;2022-08-01T05:46:21;6.70;;;1.77;;
7477;SDS011;3780;42.424;25.636;2022-08-01T05:48:47;3.00;;;1.80;;
7477;SDS011;3780;42.424;25.636;2022-08-01T05:51:12;2.75;;;1.77;;
7477;SDS011;3780;42.424;25.636;2022-08-01T05:53:38;7.22;;;1.58;;
7477;SDS011;3780;42.424;25.636;2022-08-01T05:56:04;4.72;;;1.50;;
7477;SDS011;3780;42.424;25.636;2022-08-01T05:58:33;5.05;;;1.80;;
7477;SDS011;3780;42.424;25.636;2022-08-01T06:00:58;4.93;;;1.75;;
7477;SDS011;3780;42.424;25.636;2022-08-01T06:03:24;3.65;;;1.75;;
7477;SDS011;3780;42.424;25.636;2022-08-01T06:05:51;3.88;;;1.90;;
7477;SDS011;3780;42.424;25.636;2022-08-01T06:08:17;5.32;;;1.23;;
7477;SDS011;3780;42.424;25.636;2022-08-01T06:10:42;3.30;;;1.42;;
7477;SDS011;3780;42.424;25.636;2022-08-01T06:13:08;2.40;;;1.60;;
7477;SDS011;3780;42.424;25.636;2022-08-01T06:15:34;3.90;;;1.77;;
7477;SDS011;3780;42.424;25.636;2022-08-01T06:17:59;8.55;;;2.60;;
7477;SDS011;3780;42.424;25.636;2022-08-01T06:20:25;3.15;;;1.60;;
7477;SDS011;3780;42.424;25.636;2022-08-01T06:22:51;1.95;;;1.15;;
7477;SDS011;3780;42.424;25.636;2022-08-01T06:25:19;3.63;;;1.85;;
7477;SDS011;3780;42.424;25.636;2022-08-01T06:27:45;1.95;;;1.50;;
7477;SDS011;3780;42.424;25.636;2022-08-01T06:30:10;2.10;;;1.33;;
7477;SDS011;3780;42.424;25.636;2022-08-01T06:32:36;5.95;;;2.03;;
7477;SDS011;3780;42.424;25.636;2022-08-01T06:35:02;4.35;;;1.70;;
7477;SDS011;3780;42.424;25.636;2022-08-01T06:37:28;4.65;;;1.80;;
7477;SDS011;3780;42.424;25.636;2022-08-01T06:40:04;4.20;;;1.92;;
7477;SDS011;3780;42.424;25.636;2022-08-01T06:42:30;6.53;;;1.67;;
7477;SDS011;3780;42.424;25.636;2022-08-01T06:45:00;5.57;;;1.60;;
7477;SDS011;3780;42.424;25.636;2022-08-01T06:47:27;5.57;;;1.67;;
7477;SDS011;3780;42.424;25.636;2022-08-01T06:49:52;3.92;;;1.70;;
7477;SDS011;3780;42.424;25.636;2022-08-01T06:52:18;4.15;;;2.00;;
7477;SDS011;3780;42.424;25.636;2022-08-01T06:54:43;7.30;;;1.70;;
7477;SDS011;3780;42.424;25.636;2022-08-01T06:57:09;5.25;;;1.48;;
7477;SDS011;3780;42.424;25.636;2022-08-01T06:59:34;3.47;;;1.40;;
7477;SDS011;3780;42.424;25.636;2022-08-01T07:02:00;9.30;;;1.52;;
7477;SDS011;3780;42.424;25.636;2022-08-01T07:04:26;3.47;;;1.20;;
7477;SDS011;3780;42.424;25.636;2022-08-01T07:06:52;2.63;;;1.45;;
7477;SDS011;3780;42.424;25.636;2022-08-01T07:09:17;3.78;;;1.35;;
7477;SDS011;3780;42.424;25.636;2022-08-01T07:11:42;2.72;;;1.20;;
7477;SDS011;3780;42.424;25.636;2022-08-01T07:14:08;7.55;;;1.48;;
7477;SDS011;3780;42.424;25.636;2022-08-01T07:16:34;3.65;;;1.40;;
7477;SDS011;3780;42.424;25.636;2022-08-01T07:18:59;4.40;;;1.73;;
7477;SDS011;3780;42.424;25.636;2022-08-01T07:21:25;2.80;;;1.48;;
7477;SDS011;3780;42.424;25.636;2022-08-01T07:23:50;6.82;;;1.90;;
7477;SDS011;3780;42.424;25.636;2022-08-01T07:26:15;3.17;;;1.52;;
7477;SDS011;3780;42.424;25.636;2022-08-01T07:28:42;3.72;;;1.58;;
7477;SDS011;3780;42.424;25.636;2022-08-01T07:31:08;12.20;;;1.80;;
7477;SDS011;3780;42.424;25.636;2022-08-01T07:33:33;4.72;;;1.75;;
7477;SDS011;3780;42.424;25.636;2022-08-01T07:35:59;3.50;;;1.25;;
7477;SDS011;3780;42.424;25.636;2022-08-01T07:38:24;6.50;;;1.50;;
7477;SDS011;3780;42.424;25.636;2022-08-01T07:40:50;2.55;;;1.27;;
7477;SDS011;3780;42.424;25.636;2022-08-01T07:43:15;9.02;;;1.55;;
7477;SDS011;3780;42.424;25.636;2022-08-01T07:45:41;6.95;;;1.60;;
7477;SDS011;3780;42.424;25.636;2022-08-01T07:48:07;4.60;;;1.48;;
7477;SDS011;3780;42.424;25.636;2022-08-01T07:50:33;1.65;;;1.30;;
7477;SDS011;3780;42.424;25.636;2022-08-01T07:52:59;3.42;;;1.20;;
7477;SDS011;3780;42.424;25.636;2022-08-01T07:55:25;3.40;;;1.52;;
7477;SDS011;3780;42.424;25.636;2022-08-01T07:57:51;3.97;;;1.60;;
7477;SDS011;3780;42.424;25.636;2022-08-01T08:00:17;2.90;;;1.52;;
7477;SDS011;3780;42.424;25.636;2022-08-01T08:02:43;2.95;;;1.33;;
7477;SDS011;3780;42.424;25.636;2022-08-01T08:05:09;5.45;;;1.38;;
7477;SDS011;3780;42.424;25.636;2022-08-01T08:07:35;2.28;;;1.38;;
7477;SDS011;3780;42.424;25.636;2022-08-01T08:10:01;4.45;;;1.60;;
7477;SDS011;3780;42.424;25.636;2022-08-01T08:12:27;3.70;;;1.52;;
7477;SDS011;3780;42.424;25.636;2022-08-01T08:14:53;3.25;;;1.35;;
7477;SDS011;3780;42.424;25.636;2022-08-01T08:17:18;2.00;;;1.30;;
7477;SDS011;3780;42.424;25.636;2022-08-01T08:19:44;5.70;;;1.88;;
7477;SDS011;3780;42.424;25.636;2022-08-01T08:22:09;3.70;;;1.27;;
7477;SDS011;3780;42.424;25.636;2022-08-01T08:24:36;3.70;;;1.40;;
7477;SDS011;3780;42.424;25.636;2022-08-01T08:27:02;4.80;;;1.50;;
7477;SDS011;3780;42.424;25.636;2022-08-01T08:29:28;8.27;;;1.65;;
7477;SDS011;3780;42.424;25.636;2022-08-01T08:31:57;3.72;;;1.50;;
7477;SDS011;3780;42.424;25.636;2022-08-01T08:34:23;3.50;;;1.08;;
7477;SDS011;3780;42.424;25.636;2022-08-01T08:36:50;2.17;;;1.33;;
7477;SDS011;3780;42.424;25.636;2022-08-01T08:39:16;3.00;;;1.30;;
7477;SDS011;3780;42.424;25.636;2022-08-01T08:41:42;3.60;;;1.63;;
7477;SDS011;3780;42.424;25.636;2022-08-01T08:44:08;2.75;;;1.30;;
7477;SDS011;3780;42.424;25.636;2022-08-01T08:46:38;6.30;;;3.22;;
7477;SDS011;3780;42.424;25.636;2022-08-01T08:49:07;4.35;;;1.80;;
7477;SDS011;3780;42.424;25.636;2022-08-01T08:51:34;6.88;;;2.30;;
7477;SDS011;3780;42.424;25.636;2022-08-01T08:54:03;5.05;;;1.65;;
7477;SDS011;3780;42.424;25.636;2022-08-01T08:56:30;2.30;;;1.42;;
7477;SDS011;3780;42.424;25.636;2022-08-01T08:58:59;4.43;;;1.75;;
7477;SDS011;3780;42.424;25.636;2022-08-01T09:01:26;4.13;;;1.40;;
7477;SDS011;3780;42.424;25.636;2022-08-01T09:03:52;2.90;;;1.80;;
7477;SDS011;3780;42.424;25.636;2022-08-01T09:06:19;3.78;;;1.52;;
7477;SDS011;3780;42.424;25.636;2022-08-01T09:08:45;8.63;;;1.50;;
7477;SDS011;3780;42.424;25.636;2022-08-01T09:11:11;2.60;;;1.48;;
7477;SDS011;3780;42.424;25.636;2022-08-01T09:13:37;2.33;;;1.48;;
7477;SDS011;3780;42.424;25.636;2022-08-01T09:16:02;3.67;;;1.40;;
7477;SDS011;3780;42.424;25.636;2022-08-01T09:23:40;4.80;;;1.35;;
7477;SDS011;3780;42.424;25.636;2022-08-01T09:26:15;3.13;;;1.67;;
7477;SDS011;3780;42.424;25.636;2022-08-01T09:28:43;3.13;;;1.50;;
7477;SDS011;3780;42.424;25.636;2022-08-01T09:31:17;1.92;;;1.23;;
7477;SDS011;3780;42.424;25.636;2022-08-01T09:39:16;3.97;;;2.00;;
7477;SDS011;3780;42.424;25.636;2022-08-01T09:41:43;2.58;;;1.70;;
7477;SDS011;3780;42.424;25.636;2022-08-01T09:44:08;6.13;;;1.85;;
7477;SDS011;3780;42.424;25.636;2022-08-01T09:46:34;2.72;;;1.33;;
7477;SDS011;3780;42.424;25.636;2022-08-01T09:49:00;5.90;;;2.30;;
7477;SDS011;3780;42.424;25.636;2022-08-01T09:51:37;4.10;;;1.23;;
7477;SDS011;3780;42.424;25.636;2022-08-01T09:54:04;4.28;;;1.50;;
7477;SDS011;3780;42.424;25.636;2022-08-01T09:56:38;4.20;;;1.52;;
7477;SDS011;3780;42.424;25.636;2022-08-01T09:59:05;3.47;;;1.20;;
7477;SDS011;3780;42.424;25.636;2022-08-01T10:01:46;6.55;;;1.73;;
7477;SDS011;3780;42.424;25.636;2022-08-01T10:04:14;7.22;;;1.13;;
7477;SDS011;3780;42.424;25.636;2022-08-01T10:06:44;2.63;;;1.52;;
7477;SDS011;3780;42.424;25.636;2022-08-01T10:09:14;3.20;;;1.38;;
7477;SDS011;3780;42.424;25.636;2022-08-01T10:11:41;6.22;;;1.90;;
7477;SDS011;3780;42.424;25.636;2022-08-01T10:14:07;3.17;;;1.58;;
7477;SDS011;3780;42.424;25.636;2022-08-01T10:16:33;5.25;;;1.77;;
7477;SDS011;3780;42.424;25.636;2022-08-01T10:19:01;3.20;;;1.45;;
7477;SDS011;3780;42.424;25.636;2022-08-01T10:21:33;8.02;;;1.67;;
7477;SDS011;3780;42.424;25.636;2022-08-01T10:23:59;3.58;;;1.17;;
7477;SDS011;3780;42.424;25.636;2022-08-01T10:26:27;2.92;;;1.33;;
7477;SDS011;3780;42.424;25.636;2022-08-01T10:28:57;3.28;;;1.20;;
7477;SDS011;3780;42.424;25.636;2022-08-01T10:31:32;3.92;;;1.00;;
7477;SDS011;3780;42.424;25.636;2022-08-01T10:34:01;3.50;;;1.20;;
7477;SDS011;3780;42.424;25.636;2022-08-01T10:36:28;6.03;;;1.27;;
7477;SDS011;3780;42.424;25.636;2022-08-01T10:38:55;1.92;;;1.00;;
7477;SDS011;3780;42.424;25.636;2022-08-01T10:41:21;2.42;;;1.20;;
7477;SDS011;3780;42.424;25.636;2022-08-01T10:43:47;3.58;;;1.33;;
7477;SDS011;3780;42.424;25.636;2022-08-01T10:46:12;2.30;;;1.13;;
7477;SDS011;3780;42.424;25.636;2022-08-01T10:48:47;2.50;;;1.25;;
7477;SDS011;3780;42.424;25.636;2022-08-01T10:51:21;5.55;;;1.10;;
7477;SDS011;3780;42.424;25.636;2022-08-01T10:53:52;4.90;;;1.35;;
7477;SDS011;3780;42.424;25.636;2022-08-01T10:56:22;3.15;;;1.42;;
7477;SDS011;3780;42.424;25.636;2022-08-01T10:58:49;4.43;;;1.10;;
7477;SDS011;3780;42.424;25.636;2022-08-01T11:01:26;1.33;;;1.00;;
7477;SDS011;3780;42.424;25.636;2022-08-01T11:08:57;3.15;;;1.02;;
7477;SDS011;3780;42.424;25.636;2022-08-01T11:11:23;3.38;;;1.40;;
7477;SDS011;3780;42.424;25.636;2022-08-01T11:16:26;2.65;;;1.35;;
7477;SDS011;3780;42.424;25.636;2022-08-01T11:18:53;1.48;;;0.93;;
7477;SDS011;3780;42.424;25.636;2022-08-01T11:21:18;2.08;;;1.00;;
7477;SDS011;3780;42.424;25.636;2022-08-01T11:23:48;4.63;;;1.55;;
7477;SDS011;3780;42.424;25.636;2022-08-01T11:26:15;6.53;;;2.80;;
7477;SDS011;3780;42.424;25.636;2022-08-01T11:28:42;3.95;;;1.17;;
7477;SDS011;3780;42.424;25.636;2022-08-01T11:38:42;3.03;;;1.40;;
7477;SDS011;3780;42.424;25.636;2022-08-01T11:41:23;3.28;;;1.17;;
7477;SDS011;3780;42.424;25.636;2022-08-01T11:52:05;1.67;;;0.90;;
7477;SDS011;3780;42.424;25.636;2022-08-01T11:57:01;2.17;;;1.20;;
7477;SDS011;3780;42.424;25.636;2022-08-01T11:59:35;2.22;;;1.23;;
7477;SDS011;3780;42.424;25.636;2022-08-01T12:04:44;1.45;;;1.00;;
7477;SDS011;3780;42.424;25.636;2022-08-01T12:07:15;3.40;;;1.40;;
7477;SDS011;3780;42.424;25.636;2022-08-01T12:09:41;4.82;;;1.88;;
7477;SDS011;3780;42.424;25.636;2022-08-01T12:12:08;5.07;;;3.90;;
7477;SDS011;3780;42.424;25.636;2022-08-01T12:14:34;4.70;;;1.35;;
7477;SDS011;3780;42.424;25.636;2022-08-01T12:16:59;3.30;;;1.23;;
7477;SDS011;3780;42.424;25.636;2022-08-01T12:19:25;1.70;;;1.17;;
7477;SDS011;3780;42.424;25.636;2022-08-01T12:22:06;4.03;;;1.42;;
7477;SDS011;3780;42.424;25.636;2022-08-01T12:24:37;1.50;;;1.20;;
7477;SDS011;3780;42.424;25.636;2022-08-01T12:27:05;2.28;;;1.30;;
7477;SDS011;3780;42.424;25.636;2022-08-01T12:29:37;2.70;;;1.48;;
7477;SDS011;3780;42.424;25.636;2022-08-01T12:32:28;1.88;;;1.00;;
7477;SDS011;3780;42.424;25.636;2022-08-01T12:34:56;3.15;;;1.30;;
7477;SDS011;3780;42.424;25.636;2022-08-01T12:37:26;4.47;;;1.35;;
7477;SDS011;3780;42.424;25.636;2022-08-01T12:39:52;3.95;;;1.90;;
7477;SDS011;3780;42.424;25.636;2022-08-01T12:42:18;4.78;;;1.60;;
7477;SDS011;3780;42.424;25.636;2022-08-01T12:44:44;3.15;;;1.45;;
7477;SDS011;3780;42.424;25.636;2022-08-01T12:47:14;5.18;;;1.52;;
7477;SDS011;3780;42.424;25.636;2022-08-01T12:49:41;3.40;;;1.42;;
7477;SDS011;3780;42.424;25.636;2022-08-01T12:52:08;10.02;;;3.15;;
7477;SDS011;3780;42.424;25.636;2022-08-01T12:57:26;3.83;;;1.27;;
7477;SDS011;3780;42.424;25.636;2022-08-01T13:00:05;9.13;;;1.85;;
7477;SDS011;3780;42.424;25.636;2022-08-01T13:02:37;4.78;;;0.95;;
7477;SDS011;3780;42.424;25.636;2022-08-01T13:05:03;4.47;;;0.95;;
7477;SDS011;3780;42.424;25.636;2022-08-01T13:10:08;2.15;;;1.20;;
7477;SDS011;3780;42.424;25.636;2022-08-01T13:12:34;2.90;;;1.10;;
7477;SDS011;3780;42.424;25.636;2022-08-01T13:15:15;2.63;;;1.00;;
7477;SDS011;3780;42.424;25.636;2022-08-01T13:17:49;2.88;;;0.90;;
7477;SDS011;3780;42.424;25.636;2022-08-01T13:20:31;5.80;;;1.40;;
7477;SDS011;3780;42.424;25.636;2022-08-01T13:23:18;4.40;;;1.30;;
7477;SDS011;3780;42.424;25.636;2022-08-01T13:28:18;3.50;;;1.40;;
7477;SDS011;3780;42.424;25.636;2022-08-01T13:30:52;8.27;;;1.25;;
7477;SDS011;3780;42.424;25.636;2022-08-01T13:33:26;6.20;;;1.00;;
7477;SDS011;3780;42.424;25.636;2022-08-01T13:35:53;2.78;;;1.27;;
7477;SDS011;3780;42.424;25.636;2022-08-01T13:38:20;4.35;;;1.40;;
7477;SDS011;3780;42.424;25.636;2022-08-01T13:41:07;2.88;;;1.40;;
7477;SDS011;3780;42.424;25.636;2022-08-01T13:43:33;5.07;;;1.10;;
7477;SDS011;3780;42.424;25.636;2022-08-01T13:46:00;2.50;;;1.10;;
7477;SDS011;3780;42.424;25.636;2022-08-01T13:48:28;2.08;;;1.13;;
7477;SDS011;3780;42.424;25.636;2022-08-01T13:50:54;5.25;;;1.20;;
7477;SDS011;3780;42.424;25.636;2022-08-01T13:53:20;7.47;;;1.27;;
7477;SDS011;3780;42.424;25.636;2022-08-01T13:55:45;3.30;;;1.08;;
7477;SDS011;3780;42.424;25.636;2022-08-01T13:58:11;3.97;;;1.55;;
7477;SDS011;3780;42.424;25.636;2022-08-01T14:00:36;4.68;;;1.08;;
7477;SDS011;3780;42.424;25.636;2022-08-01T14:03:02;5.40;;;1.20;;
7477;SDS011;3780;42.424;25.636;2022-08-01T14:05:28;4.35;;;1.30;;
7477;SDS011;3780;42.424;25.636;2022-08-01T14:07:53;3.40;;;1.35;;
7477;SDS011;3780;42.424;25.636;2022-08-01T14:10:19;6.72;;;1.05;;
7477;SDS011;3780;42.424;25.636;2022-08-01T14:12:44;1.20;;;0.70;;
7477;SDS011;3780;42.424;25.636;2022-08-01T14:15:10;3.00;;;0.98;;
7477;SDS011;3780;42.424;25.636;2022-08-01T14:17:38;2.08;;;1.05;;
7477;SDS011;3780;42.424;25.636;2022-08-01T14:20:06;3.58;;;1.00;;
7477;SDS011;3780;42.424;25.636;2022-08-01T14:22:32;1.65;;;1.00;;
7477;SDS011;3780;42.424;25.636;2022-08-01T14:24:58;7.55;;;2.05;;
7477;SDS011;3780;42.424;25.636;2022-08-01T14:27:24;4.03;;;1.30;;
7477;SDS011;3780;42.424;25.636;2022-08-01T14:29:50;7.05;;;1.40;;
7477;SDS011;3780;42.424;25.636;2022-08-01T14:32:15;1.77;;;0.98;;
7477;SDS011;3780;42.424;25.636;2022-08-01T14:34:41;2.58;;;1.42;;
7477;SDS011;3780;42.424;25.636;2022-08-01T14:37:06;4.13;;;0.93;;
7477;SDS011;3780;42.424;25.636;2022-08-01T14:39:32;4.70;;;1.00;;
7477;SDS011;3780;42.424;25.636;2022-08-01T14:41:57;7.75;;;0.90;;
7477;SDS011;3780;42.424;25.636;2022-08-01T14:44:23;1.60;;;1.20;;
7477;SDS011;3780;42.424;25.636;2022-08-01T14:46:48;5.72;;;0.98;;
7477;SDS011;3780;42.424;25.636;2022-08-01T14:49:14;3.65;;;1.10;;
7477;SDS011;3780;42.424;25.636;2022-08-01T14:51:40;5.28;;;1.20;;
7477;SDS011;3780;42.424;25.636;2022-08-01T14:54:05;4.90;;;1.00;;
7477;SDS011;3780;42.424;25.636;2022-08-01T14:56:31;3.97;;;1.20;;
7477;SDS011;3780;42.424;25.636;2022-08-01T14:58:57;1.80;;;0.90;;
7477;SDS011;3780;42.424;25.636;2022-08-01T15:01:23;2.88;;;1.00;;
7477;SDS011;3780;42.424;25.636;2022-08-01T15:03:49;2.15;;;1.02;;
7477;SDS011;3780;42.424;25.636;2022-08-01T15:06:15;2.67;;;0.95;;
7477;SDS011;3780;42.424;25.636;2022-08-01T15:08:42;3.25;;;1.30;;
7477;SDS011;3780;42.424;25.636;2022-08-01T15:11:08;2.28;;;0.93;;
7477;SDS011;3780;42.424;25.636;2022-08-01T15:13:34;1.98;;;1.00;;
7477;SDS011;3780;42.424;25.636;2022-08-01T15:15:59;4.82;;;0.85;;
7477;SDS011;3780;42.424;25.636;2022-08-01T15:18:25;2.42;;;0.93;;
7477;SDS011;3780;42.424;25.636;2022-08-01T15:20:51;2.63;;;0.70;;
7477;SDS011;3780;42.424;25.636;2022-08-01T15:23:16;2.63;;;1.10;;
7477;SDS011;3780;42.424;25.636;2022-08-01T15:25:42;1.05;;;0.88;;
7477;SDS011;3780;42.424;25.636;2022-08-01T15:28:10;1.25;;;0.70;;
7477;SDS011;3780;42.424;25.636;2022-08-01T15:30:36;4.50;;;0.57;;
7477;SDS011;3780;42.424;25.636;2022-08-01T15:33:02;3.00;;;0.95;;
7477;SDS011;3780;42.424;25.636;2022-08-01T15:35:28;2.78;;;1.00;;
7477;SDS011;3780;42.424;25.636;2022-08-01T15:37:53;4.97;;;0.98;;
7477;SDS011;3780;42.424;25.636;2022-08-01T15:40:19;1.02;;;0.77;;
7477;SDS011;3780;42.424;25.636;2022-08-01T15:42:44;3.55;;;1.10;;
7477;SDS011;3780;42.424;25.636;2022-08-01T15:45:10;1.80;;;1.08;;
7477;SDS011;3780;42.424;25.636;2022-08-01T15:47:38;0.98;;;0.60;;
7477;SDS011;3780;42.424;25.636;2022-08-01T15:50:06;3.00;;;0.88;;
7477;SDS011;3780;42.424;25.636;2022-08-01T15:52:32;1.60;;;0.88;;
7477;SDS011;3780;42.424;25.636;2022-08-01T15:54:58;4.50;;;0.90;;
7477;SDS011;3780;42.424;25.636;2022-08-01T15:57:23;0.80;;;0.57;;
7477;SDS011;3780;42.424;25.636;2022-08-01T15:59:49;5.75;;;0.93;;
7477;SDS011;3780;42.424;25.636;2022-08-01T16:02:15;3.35;;;1.08;;
7477;SDS011;3780;42.424;25.636;2022-08-01T16:04:40;1.45;;;0.90;;
7477;SDS011;3780;42.424;25.636;2022-08-01T16:07:06;3.03;;;1.00;;